Time;durP1;ratioP1;P1;durP2;ratioP2;P2;SDS_P1;SDS_P2;PMS_P1;PMS_P2;Temp;Humidity;BMP_temperature;BMP_pressure;BME280_temperature;BME280_humidity;BME280_pressure;Samples;Min_cycle;Max_cycle;Signal;HPM_P1;HPM_P2
2022/09/13 00:00:13;;;;;;;10.90;6.82;;;;;;;18.06;86.78;100885.16;5070861;28;20032;-63
2022/09/13 00:02:38;;;;;;;10.50;7.35;;;;;;;18.12;87.03;100878.75;5070919;28;20036;-62
2022/09/13 00:05:04;;;;;;;8.65;6.50;;;;;;;18.08;88.71;100885.09;5070536;28;20356;-62
2022/09/13 00:07:29;;;;;;;9.27;6.32;;;;;;;18.11;87.71;100882.31;5070809;28;20025;-62
2022/09/13 00:09:54;;;;;;;9.75;6.22;;;;;;;18.13;88.74;100882.25;5070904;28;20100;-62
2022/09/13 00:12:20;;;;;;;8.50;6.68;;;;;;;18.13;88.57;100888.44;5070976;28;20043;-63
2022/09/13 00:14:45;;;;;;;9.52;6.57;;;;;;;18.09;88.16;100889.47;5074321;28;20593;-63
2022/09/13 00:17:10;;;;;;;10.83;7.30;;;;;;;18.10;87.08;100880.59;5074712;28;20032;-63
2022/09/13 00:19:35;;;;;;;8.37;6.50;;;;;;;18.11;87.74;100884.97;5074620;28;20270;-63
2022/09/13 00:22:01;;;;;;;9.23;6.80;;;;;;;18.09;85.63;100869.16;5074665;28;21141;-62
2022/09/13 00:24:26;;;;;;;9.23;6.80;;;;;;;18.11;85.39;100855.84;5074560;28;20048;-62
2022/09/13 00:26:51;;;;;;;10.70;6.90;;;;;;;18.15;85.74;100867.16;5074690;28;20078;-62
2022/09/13 00:29:16;;;;;;;10.15;6.40;;;;;;;18.13;88.00;100859.28;5074454;28;20728;-63
2022/09/13 00:31:42;;;;;;;7.43;6.38;;;;;;;18.12;88.01;100870.81;5074391;28;20032;-63
2022/09/13 00:34:07;;;;;;;11.25;6.75;;;;;;;18.09;88.18;100863.84;5074306;28;20051;-62
2022/09/13 00:36:32;;;;;;;9.97;6.70;;;;;;;18.09;87.81;100865.66;5074290;28;20160;-62
2022/09/13 00:38:59;;;;;;;8.55;6.18;;;;;;;18.13;87.95;100867.22;5074145;28;20282;-62
2022/09/13 00:41:24;;;;;;;9.85;6.10;;;;;;;18.10;88.27;100859.41;5074410;28;20451;-62
2022/09/13 00:43:55;;;;;;;10.98;6.63;;;;;;;18.10;88.90;100856.78;5073605;28;20056;-63
2022/09/13 00:46:44;;;;;;;10.60;6.85;;;;;;;18.10;86.63;100848.81;5073859;28;20068;-63
2022/09/13 00:49:35;;;;;;;12.70;7.18;;;;;;;18.09;85.65;100860.34;5074179;28;20043;-63
2022/09/13 00:52:05;;;;;;;11.50;7.55;;;;;;;18.01;84.51;100851.88;5073722;28;20036;-64
2022/09/13 00:54:39;;;;;;;10.27;7.32;;;;;;;18.03;85.45;100857.97;5074049;28;20051;-63
2022/09/13 00:57:06;;;;;;;8.60;7.03;;;;;;;18.06;84.97;100849.88;5073970;28;20115;-63
2022/09/13 00:59:46;;;;;;;10.80;7.70;;;;;;;18.04;84.62;100842.00;5074107;28;20036;-63
2022/09/13 01:02:13;;;;;;;11.02;7.47;;;;;;;18.07;83.70;100841.00;5074106;28;20060;-63
2022/09/13 01:04:39;;;;;;;11.20;7.53;;;;;;;17.98;83.72;100838.78;5073660;28;20036;-63
2022/09/13 01:07:08;;;;;;;9.10;7.47;;;;;;;18.07;84.49;100841.00;5073712;28;20040;-63
2022/09/13 01:09:37;;;;;;;11.02;8.10;;;;;;;18.01;83.80;100838.63;5073835;28;20036;-63
2022/09/13 01:12:24;;;;;;;10.13;7.50;;;;;;;18.08;84.50;100842.72;5073349;28;20036;-63
2022/09/13 01:14:51;;;;;;;10.02;7.60;;;;;;;17.97;83.56;100839.72;5073856;28;20043;-63
2022/09/13 01:17:16;;;;;;;8.55;7.20;;;;;;;18.00;84.39;100834.28;5073464;28;20792;-62
2022/09/13 01:19:41;;;;;;;11.23;7.10;;;;;;;18.02;84.35;100840.34;5073592;28;20040;-62
2022/09/13 01:22:18;;;;;;;8.63;6.80;;;;;;;18.01;83.82;100842.13;5073447;28;20165;-63
2022/09/13 01:25:12;;;;;;;9.13;6.38;;;;;;;17.99;83.75;100828.13;5073418;28;20402;-62
2022/09/13 01:27:59;;;;;;;8.70;7.03;;;;;;;18.03;84.35;100839.41;5072812;28;20507;-63
2022/09/13 01:30:38;;;;;;;7.80;6.93;;;;;;;18.01;83.55;100833.31;5073156;28;20428;-63
2022/09/13 01:33:27;;;;;;;7.63;6.75;;;;;;;18.04;85.48;100827.91;5073009;28;20521;-62
2022/09/13 01:36:04;;;;;;;11.18;6.32;;;;;;;18.01;86.65;100828.88;5072680;28;20595;-62
2022/09/13 01:38:48;;;;;;;8.82;6.43;;;;;;;18.00;86.57;100829.00;5073019;28;20046;-62
2022/09/13 01:41:41;;;;;;;8.65;7.47;;;;;;;17.96;85.46;100830.03;5072801;28;20032;-63
2022/09/13 01:44:12;;;;;;;7.03;6.30;;;;;;;17.95;86.66;100833.63;5073071;28;20328;-63
2022/09/13 01:46:44;;;;;;;9.93;6.70;;;;;;;17.93;86.66;100828.38;5072983;28;20024;-63
2022/09/13 01:49:24;;;;;;;8.18;6.53;;;;;;;17.86;87.30;100826.94;5072888;28;20028;-64
2022/09/13 01:52:01;;;;;;;8.32;6.28;;;;;;;17.87;88.51;100831.28;5072793;28;20043;-63
2022/09/13 01:54:49;;;;;;;9.55;6.47;;;;;;;17.78;88.63;100807.03;5073037;28;20028;-63
2022/09/13 01:57:19;;;;;;;8.23;6.30;;;;;;;17.85;87.47;100817.25;5072712;28;20119;-63
2022/09/13 01:59:50;;;;;;;10.93;7.03;;;;;;;17.85;86.92;100817.25;5072777;28;20024;-63
2022/09/13 02:02:21;;;;;;;8.23;6.77;;;;;;;17.89;86.68;100818.84;5072779;28;20660;-62
2022/09/13 02:04:53;;;;;;;7.25;6.40;;;;;;;17.93;88.52;100816.94;5072551;28;20048;-62
2022/09/13 02:07:20;;;;;;;;;;;;;;;17.98;87.09;100823.75;5072400;28;20032;-62
2022/09/13 02:09:50;;;;;;;9.00;6.38;;;;;;;17.90;89.78;100825.88;5072276;28;20246;-60
2022/09/13 02:12:20;;;;;;;9.23;6.47;;;;;;;17.90;89.85;100817.06;5072214;28;20044;-63
2022/09/13 02:14:55;;;;;;;8.65;6.43;;;;;;;17.89;91.16;100825.94;5072281;28;20037;-63
2022/09/13 02:17:27;;;;;;;7.95;6.15;;;;;;;17.87;90.83;100820.69;5072298;28;20037;-63
2022/09/13 02:19:56;;;;;;;9.23;6.90;;;;;;;17.85;91.43;100822.56;5072031;28;20117;-63
2022/09/13 02:22:28;;;;;;;9.38;6.80;;;;;;;17.80;92.10;100826.34;5072212;28;20036;-62
2022/09/13 02:24:59;;;;;;;8.85;6.78;;;;;;;17.82;92.15;100824.50;5072178;28;20032;-63
2022/09/13 02:27:29;;;;;;;9.55;6.65;;;;;;;17.76;92.56;100822.97;5072426;28;20124;-63
2022/09/13 02:30:00;;;;;;;9.43;6.35;;;;;;;17.80;93.31;100824.56;5072411;28;20032;-63
2022/09/13 02:32:56;;;;;;;10.50;6.57;;;;;;;17.80;92.37;100821.91;5071835;28;20398;-63
2022/09/13 02:35:32;;;;;;;7.40;6.03;;;;;;;17.78;93.35;100828.19;5067671;28;20494;-63
2022/09/13 02:38:03;;;;;;;9.85;6.88;;;;;;;17.76;93.72;100838.84;5072016;28;20415;-63
2022/09/13 02:40:34;;;;;;;7.70;6.65;;;;;;;17.70;94.54;100832.03;5072031;28;20104;-63
2022/09/13 02:43:07;;;;;;;8.93;5.88;;;;;;;17.73;93.92;100838.97;5071926;28;20024;-62
2022/09/13 02:45:43;;;;;;;6.85;6.15;;;;;;;17.66;94.39;100837.53;5071810;28;20067;-62
2022/09/13 02:48:20;;;;;;;9.43;6.10;;;;;;;17.70;93.18;100836.47;5071866;28;20047;-62
2022/09/13 02:51:02;;;;;;;8.50;6.00;;;;;;;17.73;94.59;100847.78;5071632;28;20079;-62
2022/09/13 02:53:42;;;;;;;8.60;6.30;;;;;;;17.73;91.57;100845.13;5071701;28;20363;-62
2022/09/13 02:56:27;;;;;;;6.60;5.90;;;;;;;17.68;92.48;100844.47;5071554;28;20025;-62
2022/09/13 02:59:12;;;;;;;8.35;6.38;;;;;;;17.70;91.73;100842.63;5071530;28;20059;-62
2022/09/13 03:01:39;;;;;;;8.55;6.68;;;;;;;17.78;90.50;100850.25;5071334;28;20032;-63
2022/09/13 03:04:05;;;;;;;6.80;6.10;;;;;;;17.76;88.81;100840.63;5071806;28;20119;-63
2022/09/13 03:06:30;;;;;;;8.52;6.03;;;;;;;17.76;88.83;100840.63;5071522;28;20136;-63
2022/09/13 03:09:00;;;;;;;11.80;6.60;;;;;;;17.77;87.84;100842.38;5071416;28;20062;-63
2022/09/13 03:11:28;;;;;;;9.35;5.78;;;;;;;17.78;87.89;100842.28;5071436;28;20131;-62
2022/09/13 03:14:22;;;;;;;8.82;6.07;;;;;;;17.81;88.68;100849.25;5071486;28;20044;-64
2022/09/13 03:16:59;;;;;;;7.88;5.78;;;;;;;17.83;89.76;100844.75;5071145;28;20471;-62
2022/09/13 03:19:44;;;;;;;10.23;5.95;;;;;;;17.78;90.08;100830.84;5071445;28;20381;-64
2022/09/13 03:22:37;;;;;;;6.20;5.53;;;;;;;17.78;89.07;100831.72;5071064;28;20043;-64
2022/09/13 03:25:27;;;;;;;8.75;6.15;;;;;;;17.78;89.60;100841.44;5071145;28;20515;-62
2022/09/13 03:27:59;;;;;;;6.93;5.63;;;;;;;17.78;91.13;100836.13;5071447;28;20047;-63
2022/09/13 03:30:25;;;;;;;7.28;5.95;;;;;;;17.78;90.53;100828.19;5071123;28;20099;-62
2022/09/13 03:33:03;;;;;;;8.13;5.80;;;;;;;17.75;90.80;100834.47;5071024;28;20037;-61
2022/09/13 03:35:40;;;;;;;8.60;5.85;;;;;;;17.71;89.93;100835.53;5071284;28;20032;-63
2022/09/13 03:38:14;;;;;;;7.75;6.07;;;;;;;17.67;90.73;100826.84;5071330;28;20127;-61
2022/09/13 03:41:01;;;;;;;7.93;5.68;;;;;;;17.67;91.39;100824.22;5071625;28;20166;-63
2022/09/13 03:43:34;;;;;;;8.15;6.10;;;;;;;17.67;91.67;100828.63;5070909;28;20044;-61
2022/09/13 03:46:04;;;;;;;8.98;6.10;;;;;;;17.66;92.04;100835.72;5071257;28;20094;-63
2022/09/13 03:48:35;;;;;;;9.13;6.22;;;;;;;17.62;93.28;100831.47;5072842;28;20048;-61
2022/09/13 03:51:00;;;;;;;11.13;6.22;;;;;;;17.60;92.53;100822.75;5075194;28;20403;-62
2022/09/13 03:53:29;;;;;;;9.38;6.60;;;;;;;17.61;92.45;100824.47;5074845;28;20032;-62
2022/09/13 03:55:55;;;;;;;8.38;6.50;;;;;;;17.61;90.69;100813.00;5075043;28;20541;-62
2022/09/13 03:58:21;;;;;;;8.70;6.63;;;;;;;17.64;90.02;100813.78;5074959;28;20028;-62
2022/09/13 04:00:46;;;;;;;9.07;6.72;;;;;;;17.62;89.69;100818.25;5075277;28;20047;-62
2022/09/13 04:03:12;;;;;;;9.07;6.82;;;;;;;17.61;89.80;100816.53;5075105;28;20036;-63
2022/09/13 04:05:38;;;;;;;10.20;7.18;;;;;;;17.58;89.58;100821.94;5075040;28;20042;-63
2022/09/13 04:08:04;;;;;;;8.18;6.72;;;;;;;17.61;89.79;100827.09;5074943;28;20036;-63
2022/09/13 04:10:30;;;;;;;9.10;6.65;;;;;;;17.63;90.41;100821.75;5074125;28;20670;-62
2022/09/13 04:12:57;;;;;;;8.85;7.20;;;;;;;17.59;89.87;100826.31;5074622;28;20106;-63
2022/09/13 04:15:23;;;;;;;8.68;6.60;;;;;;;17.54;91.33;100833.56;5074733;28;20113;-63
2022/09/13 04:17:48;;;;;;;9.18;7.20;;;;;;;17.56;89.92;100837.03;5074987;28;20426;-63
2022/09/13 04:20:14;;;;;;;8.27;6.63;;;;;;;17.59;89.43;100839.53;5074552;28;20256;-62
2022/09/13 04:22:39;;;;;;;9.27;6.97;;;;;;;17.51;91.05;100840.78;5074679;28;20602;-61
2022/09/13 04:25:05;;;;;;;10.27;6.90;;;;;;;17.43;90.19;100848.19;5074336;28;20032;-62
2022/09/13 04:27:30;;;;;;;9.38;7.03;;;;;;;17.32;91.17;100836.25;5074509;28;20306;-62
2022/09/13 04:29:56;;;;;;;7.43;6.40;;;;;;;17.32;91.91;100845.97;5074220;28;20082;-62
2022/09/13 04:32:21;;;;;;;8.02;6.85;;;;;;;17.29;92.77;100851.41;5074536;28;20431;-62
2022/09/13 04:34:46;;;;;;;7.63;6.80;;;;;;;17.24;91.51;100853.38;5074359;28;20028;-62
2022/09/13 04:37:12;;;;;;;9.65;7.53;;;;;;;17.20;91.94;100860.56;5074389;28;20033;-62
2022/09/13 04:39:37;;;;;;;9.00;7.10;;;;;;;17.13;93.56;100859.09;5074275;28;20470;-60
2022/09/13 04:42:03;;;;;;;9.02;7.45;;;;;;;17.16;93.61;100868.66;5074272;28;20822;-61
2022/09/13 04:44:28;;;;;;;11.73;7.18;;;;;;;17.14;94.31;100859.97;5073567;28;20062;-61
2022/09/13 04:46:54;;;;;;;11.18;7.90;;;;;;;17.14;93.28;100866.13;5072898;28;20032;-60
2022/09/13 04:49:20;;;;;;;8.60;7.05;;;;;;;17.11;94.42;100860.94;5073065;28;20372;-60
2022/09/13 04:51:46;;;;;;;8.93;7.35;;;;;;;17.12;94.63;100859.16;5072509;28;20040;-60
2022/09/13 04:54:12;;;;;;;9.73;7.70;;;;;;;17.11;92.94;100860.09;5072603;28;20090;-60
2022/09/13 04:56:37;;;;;;;11.07;7.10;;;;;;;17.17;94.05;100863.31;5072168;28;20032;-61
2022/09/13 04:59:03;;;;;;;7.90;7.10;;;;;;;17.17;94.75;100859.81;5072172;28;20450;-61
2022/09/13 05:01:28;;;;;;;10.63;7.93;;;;;;;17.17;94.25;100865.09;5070799;28;20042;-60
2022/09/13 05:03:54;;;;;;;8.30;7.25;;;;;;;17.15;94.51;100854.59;5072969;28;20362;-62
2022/09/13 05:06:21;;;;;;;8.77;7.50;;;;;;;17.20;94.12;100865.84;5072653;28;20111;-61
2022/09/13 05:08:54;;;;;;;10.30;7.65;;;;;;;17.21;94.67;100858.78;5072714;28;20040;-61
2022/09/13 05:11:21;;;;;;;9.20;7.75;;;;;;;17.20;93.23;100859.69;5072578;28;20146;-62
2022/09/13 05:13:54;;;;;;;12.25;7.25;;;;;;;17.24;93.54;100853.38;5072643;28;20387;-60
2022/09/13 05:16:20;;;;;;;9.88;7.85;;;;;;;17.19;94.47;100852.69;5072593;28;20048;-64
2022/09/13 05:18:45;;;;;;;9.40;7.70;;;;;;;17.19;95.35;100858.84;5072799;28;20049;-62
2022/09/13 05:21:11;;;;;;;10.75;7.30;;;;;;;17.21;94.79;100858.78;5072105;28;20440;-63
2022/09/13 05:23:37;;;;;;;12.18;7.80;;;;;;;17.16;94.59;100856.31;5072279;28;20105;-63
2022/09/13 05:26:04;;;;;;;9.25;8.10;;;;;;;17.18;96.20;100866.84;5072384;28;20363;-62
2022/09/13 05:28:33;;;;;;;9.55;7.50;;;;;;;17.16;96.13;100860.75;5072603;28;20039;-62
2022/09/13 05:31:09;;;;;;;11.55;7.57;;;;;;;17.19;96.16;100858.84;5072500;28;20029;-62
2022/09/13 05:33:37;;;;;;;9.77;7.82;;;;;;;17.19;96.56;100864.13;5072458;28;20036;-62
2022/09/13 05:36:04;;;;;;;9.15;7.75;;;;;;;17.22;96.47;100863.16;5072417;28;20040;-62
2022/09/13 05:38:29;;;;;;;11.77;7.75;;;;;;;17.23;96.12;100862.22;5072066;28;20087;-62
2022/09/13 05:40:57;;;;;;;8.90;7.90;;;;;;;17.22;95.07;100869.31;5072294;28;20111;-62
2022/09/13 05:43:24;;;;;;;9.17;7.80;;;;;;;17.24;96.74;100869.25;5036161;28;1029733;-63
2022/09/13 05:45:49;;;;;;;12.70;8.27;;;;;;;17.20;97.09;100871.13;5073277;28;20048;-63
2022/09/13 05:48:14;;;;;;;11.30;8.15;;;;;;;17.23;96.77;100875.44;5073249;28;20070;-62
2022/09/13 05:50:40;;;;;;;12.43;8.43;;;;;;;17.25;97.26;100878.91;5073120;28;20037;-61
2022/09/13 05:53:05;;;;;;;10.65;7.88;;;;;;;17.24;97.26;100870.09;5073029;28;20046;-61
2022/09/13 05:55:31;;;;;;;9.45;7.40;;;;;;;17.28;96.48;100878.78;5073053;28;20032;-62
2022/09/13 05:57:57;;;;;;;11.10;7.55;;;;;;;17.32;96.65;100867.13;5072587;28;20051;-61
2022/09/13 06:00:22;;;;;;;9.55;7.40;;;;;;;17.39;96.02;100876.53;5072934;28;20448;-61
2022/09/13 06:02:48;;;;;;;11.95;8.10;;;;;;;17.42;96.21;100881.72;5072408;28;20113;-61
2022/09/13 06:05:13;;;;;;;9.40;7.93;;;;;;;17.44;96.36;100876.38;5072592;28;20522;-62
2022/09/13 06:07:40;;;;;;;10.68;8.02;;;;;;;17.47;96.50;100877.09;5072543;28;20029;-62
2022/09/13 06:10:06;;;;;;;10.57;8.13;;;;;;;17.44;97.05;100869.28;5072206;28;20040;-60
2022/09/13 06:12:32;;;;;;;11.85;8.45;;;;;;;17.41;97.38;100872.06;5072246;28;20033;-60
2022/09/13 06:14:57;;;;;;;11.65;8.23;;;;;;;17.43;97.27;100872.84;5072624;28;20040;-60
2022/09/13 06:17:22;;;;;;;11.32;8.70;;;;;;;17.46;95.78;100871.88;5072760;28;20418;-63
2022/09/13 06:19:48;;;;;;;9.75;8.45;;;;;;;17.54;95.17;100870.63;5072527;28;20032;-61
2022/09/13 06:22:13;;;;;;;10.77;8.15;;;;;;;17.59;95.61;100862.50;5072434;28;20127;-61
2022/09/13 06:24:38;;;;;;;12.43;8.52;;;;;;;17.66;95.36;100872.78;5072220;28;20355;-62
2022/09/13 06:27:04;;;;;;;11.10;8.88;;;;;;;17.69;95.56;100871.78;5072665;28;20108;-60
2022/09/13 06:29:30;;;;;;;11.18;8.70;;;;;;;17.74;95.90;100875.97;5072318;28;20431;-60
2022/09/13 06:31:55;;;;;;;13.10;8.50;;;;;;;17.81;96.06;100867.78;5072375;28;20037;-61
2022/09/13 06:34:20;;;;;;;10.43;8.30;;;;;;;17.85;96.11;100867.56;5072278;28;20471;-60
2022/09/13 06:36:46;;;;;;;12.05;8.70;;;;;;;17.93;94.90;100868.09;5072168;28;20309;-61
2022/09/13 06:39:11;;;;;;;11.73;9.27;;;;;;;17.95;94.64;100865.41;5072183;28;20032;-60
2022/09/13 06:41:37;;;;;;;12.00;9.30;;;;;;;18.03;94.27;100863.25;5072364;28;20116;-62
2022/09/13 06:44:03;;;;;;;12.65;9.02;;;;;;;18.09;94.32;100860.34;5073565;28;20080;-64
2022/09/13 06:46:31;;;;;;;14.43;9.27;;;;;;;18.14;94.16;100866.31;5077655;28;20059;-63
2022/09/13 06:49:07;;;;;;;11.23;9.40;;;;;;;18.16;94.04;100861.81;5092308;28;20051;-62
2022/09/13 06:51:34;;;;;;;15.02;9.38;;;;;;;18.15;93.81;100862.75;5092143;28;20136;-62
2022/09/13 06:54:01;;;;;;;13.35;9.55;;;;;;;18.18;94.97;100867.03;5091524;28;20466;-63
2022/09/13 06:56:29;;;;;;;14.63;10.30;;;;;;;18.19;95.00;100874.03;5092202;28;20051;-61
2022/09/13 06:59:00;;;;;;;14.02;9.65;;;;;;;18.16;94.37;100880.34;5091198;28;20123;-62
2022/09/13 07:01:37;;;;;;;13.15;10.20;;;;;;;18.18;93.63;100875.84;5092121;28;20031;-62
2022/09/13 07:04:11;;;;;;;14.38;10.23;;;;;;;18.18;92.57;100873.19;5091847;28;20451;-62
2022/09/13 07:06:46;;;;;;;14.68;11.90;;;;;;;18.20;92.54;100873.97;5092320;28;20046;-63
2022/09/13 07:09:16;;;;;;;15.13;10.73;;;;;;;18.27;91.21;100875.44;5092189;28;20116;-63
2022/09/13 07:11:42;;;;;;;17.02;11.48;;;;;;;18.30;90.84;100863.84;5091735;28;20035;-62
2022/09/13 07:14:13;;;;;;;18.75;14.02;;;;;;;18.38;89.99;100877.59;5091825;28;20100;-61
2022/09/13 07:16:39;;;;;;;20.73;15.10;;;;;;;18.39;90.91;100861.63;5091752;28;20402;-62
2022/09/13 07:19:07;;;;;;;20.23;14.02;;;;;;;18.48;89.71;100868.31;5091890;28;20032;-63
2022/09/13 07:21:37;;;;;;;15.50;12.65;;;;;;;18.56;89.85;100875.88;5091664;28;20439;-60
2022/09/13 07:24:03;;;;;;;17.80;12.82;;;;;;;18.63;89.52;100864.13;5091903;28;20035;-62
2022/09/13 07:26:28;;;;;;;18.05;13.95;;;;;;;18.70;90.71;100870.88;5089788;28;20047;-62
2022/09/13 07:28:56;;;;;;;16.52;13.10;;;;;;;18.77;89.85;100877.59;5077355;28;20040;-64
2022/09/13 07:31:25;;;;;;;19.85;14.65;;;;;;;18.82;89.23;100880.03;5091139;28;20036;-62
2022/09/13 07:33:56;;;;;;;18.25;13.85;;;;;;;18.86;88.19;100881.63;5091592;28;20427;-62
2022/09/13 07:36:22;;;;;;;19.58;14.07;;;;;;;18.90;88.82;100876.06;5091924;28;20028;-63
2022/09/13 07:38:48;;;;;;;17.83;13.73;;;;;;;19.01;88.12;100883.53;5091429;28;20048;-63
2022/09/13 07:41:15;;;;;;;21.10;14.93;;;;;;;19.08;87.63;100882.28;5091702;28;20043;-62
2022/09/13 07:43:41;;;;;;;18.98;15.23;;;;;;;19.10;87.74;100881.28;5091325;28;20048;-61
2022/09/13 07:46:12;;;;;;;20.55;15.80;;;;;;;19.19;87.90;100884.44;5091593;28;20058;-62
2022/09/13 07:48:39;;;;;;;19.08;15.40;;;;;;;19.20;86.98;100896.78;5091647;28;20168;-63
2022/09/13 07:51:06;;;;;;;17.63;14.85;;;;;;;19.30;87.69;100882.97;5091628;28;20032;-62
2022/09/13 07:53:33;;;;;;;24.80;17.30;;;;;;;19.35;86.73;100891.59;5091068;28;20040;-63
2022/09/13 07:56:11;;;;;;;20.65;16.05;;;;;;;19.43;87.50;100885.88;5091440;28;20040;-61
2022/09/13 07:58:38;;;;;;;19.80;16.02;;;;;;;19.53;86.50;100891.66;5091453;28;20032;-62
2022/09/13 08:01:07;;;;;;;20.05;16.02;;;;;;;19.55;86.39;100900.41;5086839;28;20043;-63
2022/09/13 08:03:34;;;;;;;21.55;17.13;;;;;;;19.66;86.70;100896.25;5091476;28;20035;-61
2022/09/13 08:06:00;;;;;;;23.38;16.80;;;;;;;19.70;86.23;100902.28;5091220;28;20036;-61
2022/09/13 08:08:26;;;;;;;23.33;17.98;;;;;;;19.76;86.32;100894.84;5091155;28;20339;-63
2022/09/13 08:10:52;;;;;;;24.10;18.52;;;;;;;19.82;86.09;100896.34;5091293;28;20031;-62
2022/09/13 08:13:17;;;;;;;23.17;18.42;;;;;;;19.80;86.46;100887.59;5091321;28;20580;-63
2022/09/13 08:15:43;;;;;;;22.98;17.63;;;;;;;20.01;86.94;100888.28;5091399;28;20043;-60
2022/09/13 08:18:08;;;;;;;25.27;18.73;;;;;;;20.44;84.37;100894.88;5091229;28;20036;-61
2022/09/13 08:20:38;;;;;;;25.00;19.10;;;;;;;20.79;82.74;100890.31;5091376;28;20032;-60
2022/09/13 08:23:04;;;;;;;24.27;19.83;;;;;;;20.95;82.71;100898.34;5090768;28;20400;-61
2022/09/13 08:25:34;;;;;;;24.98;19.80;;;;;;;20.85;81.97;100897.97;5053597;28;20033;-61
2022/09/13 08:28:00;;;;;;;26.58;19.40;;;;;;;20.87;82.29;100895.22;5051004;28;20032;-62
2022/09/13 08:30:32;;;;;;;27.25;21.27;;;;;;;20.83;82.65;100899.84;5050918;28;20041;-61
2022/09/13 08:32:58;;;;;;;26.98;21.52;;;;;;;20.77;82.70;100909.03;5051913;28;20037;-62
2022/09/13 08:35:24;;;;;;;28.00;21.77;;;;;;;20.80;83.47;100913.31;5073271;28;20024;-59
2022/09/13 08:37:49;;;;;;;32.40;25.50;;;;;;;20.88;83.88;100910.25;5074269;28;20119;-62
2022/09/13 08:40:14;;;;;;;28.85;22.40;;;;;;;20.87;83.28;100908.53;5063121;28;20418;-62
2022/09/13 08:42:56;;;;;;;27.23;22.17;;;;;;;21.03;83.33;100910.25;5059532;28;20037;-62
2022/09/13 08:45:22;;;;;;;;;;;;;;;21.31;84.01;100914.03;5087995;28;20528;-63
2022/09/13 08:47:55;;;;;;;28.95;23.35;;;;;;;21.55;81.13;100912.66;5094658;28;19916;-64
2022/09/13 08:50:22;;;;;;;29.40;23.38;;;;;;;21.65;80.85;100916.47;5076807;28;20553;-61
2022/09/13 08:53:05;;;;;;;35.17;23.15;;;;;;;21.61;81.15;100917.63;5054357;28;20048;-62
2022/09/13 08:55:39;;;;;;;28.75;23.55;;;;;;;21.54;80.49;100913.59;5054465;28;20114;-61
2022/09/13 08:58:24;;;;;;;28.02;23.20;;;;;;;21.61;81.68;100906.13;5053860;28;20120;-60
2022/09/13 09:01:10;;;;;;;28.38;23.27;;;;;;;21.64;80.45;100904.16;5053113;28;20365;-62
2022/09/13 09:03:48;;;;;;;28.38;23.02;;;;;;;21.71;80.88;100902.81;5054315;28;20102;-63
2022/09/13 09:06:16;;;;;;;30.67;24.30;;;;;;;21.71;81.19;100894.81;5054215;28;20089;-61
2022/09/13 09:08:58;;;;;;;29.10;23.45;;;;;;;21.82;81.12;100894.19;5053628;28;20041;-62
2022/09/13 09:11:29;;;;;;;29.23;23.48;;;;;;;21.86;79.85;100901.03;5054030;28;20132;-63
2022/09/13 09:14:22;;;;;;;29.10;21.83;;;;;;;21.94;81.00;100889.94;5053880;28;20082;-63
2022/09/13 09:16:54;;;;;;;30.58;22.10;;;;;;;21.85;78.98;100876.22;5053943;28;20747;-61
2022/09/13 09:19:29;;;;;;;26.08;21.90;;;;;;;21.87;79.69;100881.44;5053717;28;20056;-63
2022/09/13 09:21:55;;;;;;;28.10;21.42;;;;;;;21.94;80.06;100881.97;5056281;28;20029;-63
2022/09/13 09:24:24;;;;;;;30.23;23.95;;;;;;;22.08;80.22;100887.34;5079923;28;20043;-62
2022/09/13 09:26:52;;;;;;;32.42;25.30;;;;;;;22.20;79.89;100892.78;5093893;28;20048;-64
2022/09/13 09:29:21;;;;;;;33.50;24.27;;;;;;;22.32;79.82;100888.53;5093942;28;20610;-64
2022/09/13 09:32:17;;;;;;;28.23;22.42;;;;;;;22.52;79.98;100887.25;5093495;28;20036;-62
2022/09/13 09:34:45;;;;;;;25.27;20.80;;;;;;;22.64;77.63;100891.00;5078117;28;20112;-63
2022/09/13 09:37:20;;;;;;;25.40;20.63;;;;;;;22.73;77.44;100882.41;5073500;28;20111;-63
2022/09/13 09:39:45;;;;;;;26.85;21.50;;;;;;;22.81;77.34;100897.00;5073646;28;20063;-61
2022/09/13 09:42:18;;;;;;;26.60;20.65;;;;;;;22.87;77.36;100883.25;5073485;28;20068;-63
2022/09/13 09:44:51;;;;;;;27.17;20.65;;;;;;;22.99;77.03;100881.63;5072839;28;20048;-62
2022/09/13 09:47:22;;;;;;;27.90;20.33;;;;;;;23.15;75.96;100885.03;5072520;28;20051;-62
2022/09/13 09:50:09;;;;;;;30.20;21.98;;;;;;;23.27;75.32;100878.00;5073240;28;20044;-62
2022/09/13 09:52:44;;;;;;;25.75;19.35;;;;;;;23.30;74.28;100876.97;5073118;28;20040;-62
2022/09/13 09:55:28;;;;;;;25.05;19.02;;;;;;;23.36;75.12;100860.53;5072992;28;20025;-61
2022/09/13 09:57:55;;;;;;;23.58;18.48;;;;;;;23.62;74.49;100878.38;5072432;28;20056;-62
2022/09/13 10:00:28;;;;;;;22.10;17.73;;;;;;;23.67;73.88;100881.59;5052631;28;20374;-62
2022/09/13 10:02:58;;;;;;;23.35;17.85;;;;;;;23.68;74.01;100883.31;5052923;28;20033;-63
2022/09/13 10:05:24;;;;;;;26.08;18.35;;;;;;;23.65;72.32;100880.00;5053060;28;20094;-62
2022/09/13 10:07:56;;;;;;;21.73;16.58;;;;;;;23.69;72.97;100877.03;5052826;28;20406;-61
2022/09/13 10:10:28;;;;;;;;;;;;;;;23.79;74.74;100879.91;5053182;28;20433;-62
2022/09/13 10:12:55;;;;;;;20.70;15.80;;;;;;;23.67;71.10;100875.41;5052922;28;19917;-63
2022/09/13 10:15:25;;;;;;;18.98;14.25;;;;;;;23.81;72.49;100873.50;5052815;28;20029;-62
2022/09/13 10:18:13;;;;;;;22.45;16.52;;;;;;;24.00;73.74;100872.25;5052774;28;20775;-61
2022/09/13 10:20:39;;;;;;;20.83;16.10;;;;;;;24.03;70.53;100872.03;5052442;28;20037;-62
2022/09/13 10:23:18;;;;;;;21.70;15.60;;;;;;;24.36;72.95;100875.06;5052767;28;20123;-62
2022/09/13 10:25:54;;;;;;;23.02;16.05;;;;;;;24.52;70.25;100874.84;5055658;28;20028;-62
2022/09/13 10:28:21;;;;;;;21.92;15.07;;;;;;;24.80;70.18;100868.34;5072239;28;20036;-62
2022/09/13 10:31:00;;;;;;;18.70;14.38;;;;;;;25.00;70.14;100870.47;5084430;28;20031;-63
2022/09/13 10:33:34;;;;;;;16.08;12.73;;;;;;;25.13;68.99;100871.28;5066576;28;20696;-63
2022/09/13 10:36:04;;;;;;;14.90;11.77;;;;;;;24.80;67.39;100876.38;5065500;28;20079;-62
2022/09/13 10:38:38;;;;;;;22.48;16.20;;;;;;;24.68;68.89;100866.56;5061369;28;20032;-62
2022/09/13 10:41:10;;;;;;;20.17;15.13;;;;;;;24.64;69.82;100880.16;5069731;28;20063;-62
2022/09/13 10:43:36;;;;;;;19.20;15.07;;;;;;;24.55;70.12;100869.28;5071980;28;20140;-63
2022/09/13 10:46:05;;;;;;;20.15;14.82;;;;;;;24.42;70.10;100863.91;5062319;28;20789;-62
2022/09/13 10:48:44;;;;;;;21.10;15.23;;;;;;;24.42;70.68;100874.63;5059452;28;20036;-63
2022/09/13 10:51:21;;;;;;;16.92;12.65;;;;;;;24.37;72.02;100874.13;5070381;28;20102;-62
2022/09/13 10:53:47;;;;;;;17.52;13.77;;;;;;;24.11;70.23;100865.19;5068828;28;20115;-62
2022/09/13 10:56:21;;;;;;;16.88;13.45;;;;;;;24.03;71.71;100864.03;5062803;28;20441;-63
2022/09/13 10:58:46;;;;;;;17.95;14.05;;;;;;;23.87;70.59;100861.56;5051902;28;20068;-62
2022/09/13 11:01:43;;;;;;;17.50;13.75;;;;;;;23.81;72.39;100867.31;5051982;28;20098;-61
2022/09/13 11:04:24;;;;;;;16.17;12.48;;;;;;;23.78;73.09;100857.69;5051827;28;20178;-62
2022/09/13 11:07:16;;;;;;;18.58;13.93;;;;;;;23.76;72.96;100848.91;5051519;28;20379;-62
2022/09/13 11:09:57;;;;;;;18.90;14.60;;;;;;;23.70;73.00;100843.13;5059917;28;20043;-63
2022/09/13 11:12:34;;;;;;;19.90;15.52;;;;;;;23.65;73.77;100842.59;5062730;28;20032;-62
2022/09/13 11:15:21;;;;;;;18.00;14.30;;;;;;;23.78;74.08;100846.13;5068803;28;20348;-62
2022/09/13 11:18:16;;;;;;;18.45;14.63;;;;;;;23.96;73.72;100839.53;5054206;28;20041;-62
2022/09/13 11:21:03;;;;;;;17.10;13.55;;;;;;;24.26;73.18;100839.22;5051490;28;20029;-61
2022/09/13 11:23:52;;;;;;;17.67;13.77;;;;;;;24.54;71.52;100835.47;5051612;28;20029;-62
2022/09/13 11:26:47;;;;;;;18.17;13.70;;;;;;;24.78;71.02;100833.66;5051528;28;20078;-62
2022/09/13 11:29:25;;;;;;;16.67;13.77;;;;;;;25.11;69.26;100821.50;5051533;28;20029;-62
2022/09/13 11:32:02;;;;;;;16.63;13.27;;;;;;;25.14;68.89;100824.78;5051391;28;20076;-62
2022/09/13 11:34:50;;;;;;;14.57;12.55;;;;;;;25.21;65.87;100825.19;5051711;28;20094;-63